Terminal Aerodrome Forecast
Issued by NWS Cleveland, OH

Home | Current Version | Previous Version | Graphics & Text | Print | Product List | Glossary Off
Versions: 1 2 3 4 5 6 7 8 9 10 11 12 13

584
FTUS41 KCLE 261122
TAFERI
TAF
KERI 261122Z 2612/2712 20005KT P6SM SCT250
     FM261500 24004KT P6SM SCT250
     FM261700 30005KT P6SM SCT050
     FM270400 18004KT P6SM SCT250=

USA.gov is the U.S. government's official web portal to all federal, state and local government web resources and services.